Buckhorn, Canada
Current Conditions -  °F | °C
As of 9:51 AM on Tuesday 21 Oct 2014 (Local Time) from CYPQ Reporting Station
Light Rain Light Rain  
Wind Chill: 40°   Ceiling: 900
Heat Index: 46°   Visibility: 2mi
Dew Point: 45°   Wind: 14mph
Humidity: 93%   Direction: 30°NNE
Pressure: 29.87"   Gusts: NA
Location:  44.55°N, 78.33°W
Report Text: CYPQ 211351Z AUTO 03012KT 2SM -RA BR OVC009 08/07 A2987 RMK SLP119
Loading
Personal Weather Stations






























Interactive Weather Map
Tropical Storm Tracking
New forecast layout! Learn more

10-Day Weather Forecast

Advertisements
Track Severe Weather on mobile